Time;durP1;ratioP1;P1;durP2;ratioP2;P2;SDS_P1;SDS_P2;PMS_P1;PMS_P2;Temp;Humidity;BMP_temperature;BMP_pressure;BME280_temperature;BME280_humidity;BME280_pressure;Samples;Min_cycle;Max_cycle;Signal;HPM_P1;HPM_P2
2022/02/08 00:00:03;;;;;;;2.75;1.80;;;9.10;77.60;;;;;;4998969;28;20041;-82
2022/02/08 00:02:34;;;;;;;2.90;1.92;;;9.10;77.60;;;;;;4989627;28;20096;-84
2022/02/08 00:05:01;;;;;;;2.97;2.00;;;9.10;77.60;;;;;;4983122;28;20454;-82
2022/02/08 00:07:28;;;;;;;3.67;2.05;;;9.10;77.60;;;;;;4987410;28;20025;-82
2022/02/08 00:09:54;;;;;;;4.28;2.22;;;9.10;77.60;;;;;;4995708;28;20026;-83
2022/02/08 00:12:20;;;;;;;3.67;1.95;;;9.10;77.60;;;;;;4997500;28;20104;-83
2022/02/08 00:14:47;;;;;;;5.20;2.13;;;9.10;77.60;;;;;;4978404;28;20057;-83
2022/02/08 00:17:13;;;;;;;3.03;1.98;;;9.10;77.60;;;;;;4995191;28;20041;-83
2022/02/08 00:19:38;;;;;;;5.20;2.13;;;9.10;77.60;;;;;;5008931;28;20030;-84
2022/02/08 00:22:05;;;;;;;4.05;2.22;;;9.20;77.70;;;;;;4989538;28;20041;-83
2022/02/08 00:24:32;;;;;;;3.30;2.45;;;9.20;77.70;;;;;;5003422;28;20030;-83
2022/02/08 00:26:59;;;;;;;3.92;2.08;;;9.20;77.70;;;;;;4996252;28;20029;-82
2022/02/08 00:29:24;;;;;;;4.97;2.47;;;9.20;77.70;;;;;;5002829;28;20025;-83
2022/02/08 00:31:50;;;;;;;4.88;2.25;;;9.20;77.70;;;;;;4998411;28;20088;-83
2022/02/08 00:34:16;;;;;;;3.80;2.13;;;9.20;78.40;;;;;;4971950;28;20080;-81
2022/02/08 00:36:42;;;;;;;3.80;2.10;;;9.20;77.80;;;;;;4998317;28;20137;-84
2022/02/08 00:39:08;;;;;;;3.70;2.20;;;9.20;77.70;;;;;;4994007;28;20030;-82
2022/02/08 00:41:36;;;;;;;5.25;2.08;;;9.20;77.70;;;;;;4987122;28;20037;-83
2022/02/08 00:44:10;;;;;;;5.03;2.40;;;9.20;77.70;;;;;;4979100;28;20034;-82
2022/02/08 00:46:43;;;;;;;4.88;2.60;;;9.20;77.70;;;;;;5001144;28;20057;-82
2022/02/08 00:49:10;;;;;;;4.35;2.38;;;9.20;77.70;;;;;;4999505;28;20179;-83
2022/02/08 00:52:04;;;;;;;5.90;2.60;;;9.20;77.70;;;;;;4998679;28;20084;-83
2022/02/08 00:54:26;;;;;;;5.18;2.33;;;9.20;77.80;;;;;;5013932;28;20402;-82
2022/02/08 00:56:52;;;;;;;3.92;2.22;;;9.20;77.70;;;;;;4981570;28;20044;-83
2022/02/08 00:59:18;;;;;;;4.13;2.22;;;9.20;77.80;;;;;;4982527;28;20108;-83
2022/02/08 01:01:44;;;;;;;4.30;2.60;;;9.20;77.80;;;;;;4978151;28;20490;-87
2022/02/08 01:04:12;;;;;;;4.45;2.42;;;9.20;77.80;;;;;;4976238;28;20065;-84
2022/02/08 01:06:40;;;;;;;4.47;2.60;;;9.30;77.90;;;;;;4989068;28;20486;-83
2022/02/08 01:09:13;;;;;;;4.22;2.70;;;9.30;77.80;;;;;;5005545;28;20026;-82
2022/02/08 01:11:42;;;;;;;5.65;2.60;;;9.30;77.80;;;;;;4979296;28;20038;-82
2022/02/08 01:14:08;;;;;;;4.60;3.03;;;9.30;77.80;;;;;;4990513;28;20021;-83
2022/02/08 01:16:34;;;;;;;5.60;2.92;;;9.30;77.80;;;;;;4963512;28;20390;-82
2022/02/08 01:19:01;;;;;;;7.63;3.20;;;9.30;77.80;;;;;;4982687;28;20033;-83
2022/02/08 01:21:29;;;;;;;5.50;2.67;;;9.30;77.80;;;;;;4969620;28;20026;-83
2022/02/08 01:23:54;;;;;;;5.13;2.80;;;9.30;77.80;;;;;;4977811;28;20154;-84
2022/02/08 01:26:21;;;;;;;4.90;2.60;;;9.30;77.80;;;;;;4972567;28;20044;-83
2022/02/08 01:28:57;;;;;;;4.85;2.80;;;9.30;77.80;;;;;;4976147;28;20026;-87
2022/02/08 01:31:24;;;;;;;4.43;2.78;;;9.30;77.90;;;;;;4975406;28;20125;-86
2022/02/08 01:39:21;;;;;;;4.63;3.22;;;9.30;77.90;;;;;;4986211;28;20124;-84
2022/02/08 01:51:56;;;;;;;4.95;3.17;;;9.30;77.90;;;;;;4979419;28;20026;-83
2022/02/08 01:54:24;;;;;;;6.50;3.40;;;9.30;77.90;;;;;;4996389;28;20435;-85
2022/02/08 01:56:52;;;;;;;4.97;3.38;;;9.30;77.90;;;;;;4972015;28;20044;-85
2022/02/08 01:59:19;;;;;;;5.95;3.58;;;9.30;77.90;;;;;;4991319;28;20030;-83
2022/02/08 02:01:45;;;;;;;6.32;3.83;;;9.30;77.90;;;;;;4979491;28;20046;-83
2022/02/08 02:04:11;;;;;;;5.50;3.63;;;9.30;77.90;;;;;;4978185;28;20034;-83
2022/02/08 02:06:40;;;;;;;6.43;4.18;;;9.30;77.90;;;;;;5018690;28;20029;-84
2022/02/08 02:09:08;;;;;;;5.78;4.05;;;9.30;77.90;;;;;;4977552;28;20041;-85
2022/02/08 02:11:35;;;;;;;7.53;4.25;;;9.30;77.90;;;;;;5002904;28;20475;-83
2022/02/08 02:14:01;;;;;;;7.35;4.20;;;9.40;78.00;;;;;;4979775;28;20046;-87
2022/02/08 02:18:54;;;;;;;7.03;4.03;;;9.40;78.00;;;;;;4999295;28;20026;-84
2022/02/08 02:21:23;;;;;;;6.10;4.07;;;9.40;78.00;;;;;;4948056;28;20030;-85
2022/02/08 02:23:50;;;;;;;6.88;4.22;;;9.40;78.00;;;;;;5004153;28;20056;-83
2022/02/08 02:26:23;;;;;;;6.38;4.20;;;9.40;78.00;;;;;;4993419;28;20032;-84
2022/02/08 02:28:49;;;;;;;6.20;4.30;;;9.40;78.00;;;;;;5002027;28;20041;-84
2022/02/08 02:31:19;;;;;;;6.88;4.43;;;9.40;78.00;;;;;;4984022;28;20669;-83
2022/02/08 02:33:45;;;;;;;7.05;4.72;;;9.40;78.00;;;;;;4968188;28;20046;-85
2022/02/08 02:36:12;;;;;;;7.13;4.85;;;9.40;78.00;;;;;;4981747;28;20029;-85
2022/02/08 02:38:39;;;;;;;6.72;4.63;;;9.40;78.00;;;;;;4999705;28;20050;-83
2022/02/08 02:41:06;;;;;;;8.07;5.15;;;9.40;78.00;;;;;;4984778;28;20036;-84
2022/02/08 02:43:32;;;;;;;6.72;5.05;;;9.50;78.10;;;;;;5000692;28;20026;-86
2022/02/08 02:46:01;;;;;;;7.63;5.38;;;9.40;78.00;;;;;;4971389;28;20121;-84
2022/02/08 02:48:27;;;;;;;6.47;5.38;;;9.50;78.00;;;;;;5017142;28;20088;-83
2022/02/08 02:50:56;;;;;;;7.28;5.65;;;9.50;78.00;;;;;;4985451;28;20091;-85
2022/02/08 02:53:36;;;;;;;7.30;5.47;;;9.50;78.00;;;;;;5000964;28;20029;-83
2022/02/08 02:56:09;;;;;;;8.05;5.05;;;9.50;78.00;;;;;;4988176;28;20040;-87
2022/02/08 02:58:37;;;;;;;8.27;5.90;;;9.50;78.00;;;;;;4954628;28;20483;-84
2022/02/08 03:17:54;;;;;;;9.02;6.32;;;9.50;78.00;;;;;;5007929;28;20041;-83
2022/02/08 03:20:21;;;;;;;8.82;6.20;;;9.50;78.00;;;;;;4999522;28;20493;-86
2022/02/08 03:22:48;;;;;;;8.20;6.18;;;9.50;78.00;;;;;;4996404;28;20050;-84
2022/02/08 03:25:15;;;;;;;8.07;6.70;;;9.50;78.10;;;;;;5012418;28;20048;-86
2022/02/08 03:27:41;;;;;;;8.98;7.03;;;9.50;78.10;;;;;;5017270;28;20033;-84
2022/02/08 03:30:09;;;;;;;8.98;6.75;;;9.60;78.20;;;;;;5024939;28;20037;-84
2022/02/08 03:32:36;;;;;;;8.60;6.72;;;9.60;78.20;;;;;;5005810;28;20036;-83
2022/02/08 03:35:03;;;;;;;9.43;6.78;;;9.60;78.10;;;;;;5001480;28;20068;-84
2022/02/08 03:37:32;;;;;;;9.10;7.05;;;9.60;78.10;;;;;;5016123;28;20037;-83
2022/02/08 03:40:05;;;;;;;9.18;7.10;;;9.60;78.10;;;;;;4989110;28;20041;-84
2022/02/08 03:42:55;;;;;;;10.43;7.55;;;9.60;78.10;;;;;;5009463;28;20083;-84
2022/02/08 03:45:22;;;;;;;9.15;7.25;;;9.60;78.10;;;;;;5019866;28;20048;-84
2022/02/08 03:47:48;;;;;;;10.63;7.90;;;9.70;78.10;;;;;;4972446;28;20433;-83
2022/02/08 03:50:14;;;;;;;9.98;8.02;;;9.70;78.20;;;;;;4997865;28;20147;-83
2022/02/08 03:52:41;;;;;;;9.43;7.38;;;9.70;78.20;;;;;;5001653;28;20030;-84
2022/02/08 03:55:07;;;;;;;10.55;7.93;;;9.70;78.20;;;;;;5015069;28;20477;-83
2022/02/08 03:57:34;;;;;;;9.82;7.55;;;9.70;78.20;;;;;;5015477;28;20041;-83
2022/02/08 04:00:05;;;;;;;10.40;7.78;;;9.70;78.10;;;;;;5022757;28;20013;-83
2022/02/08 04:02:47;;;;;;;9.50;7.65;;;9.70;78.10;;;;;;5042042;28;20087;-83
2022/02/08 04:07:59;;;;;;;9.80;8.05;;;9.70;78.10;;;;;;5022095;28;20069;-83
2022/02/08 04:10:27;;;;;;;10.45;8.23;;;9.80;78.20;;;;;;5003190;28;20095;-83
2022/02/08 04:18:16;;;;;;;10.77;8.02;;;9.80;78.20;;;;;;5023809;28;20045;-83
2022/02/08 04:37:56;;;;;;;10.10;7.72;;;9.80;78.30;;;;;;5042750;28;20053;-85
2022/02/08 04:42:44;;;;;;;10.18;7.80;;;9.80;78.30;;;;;;5007400;28;20091;-83
2022/02/08 04:45:32;;;;;;;9.70;7.68;;;9.90;78.40;;;;;;5041614;28;20033;-84
2022/02/08 04:48:04;;;;;;;10.85;8.57;;;9.80;78.30;;;;;;5020100;28;20144;-83
2022/02/08 04:50:32;;;;;;;9.57;7.93;;;9.90;78.30;;;;;;5016383;28;20111;-82
2022/02/08 04:53:05;;;;;;;10.52;8.00;;;9.90;78.30;;;;;;4984094;28;20056;-82
2022/02/08 04:55:43;;;;;;;9.70;7.68;;;9.90;78.30;;;;;;5001427;28;20076;-83
2022/02/08 04:58:19;;;;;;;9.90;8.05;;;9.90;78.30;;;;;;5019193;28;20036;-86
2022/02/08 05:01:03;;;;;;;11.50;8.48;;;10.00;78.40;;;;;;5011411;28;20040;-83
2022/02/08 05:44:32;;;;;;;10.02;6.93;;;10.20;78.30;;;;;;5028377;28;20052;-84
2022/02/08 05:46:57;;;;;;;9.57;7.25;;;10.20;78.40;;;;;;5020913;28;20033;-81
2022/02/08 05:49:26;;;;;;;9.82;7.72;;;10.20;78.30;;;;;;5036747;28;20033;-82
2022/02/08 05:54:20;;;;;;;8.80;6.93;;;10.20;78.30;;;;;;5055106;28;20096;-83
2022/02/08 05:56:51;;;;;;;8.88;7.25;;;10.30;78.40;;;;;;5007621;28;20087;-86
2022/02/08 05:59:17;;;;;;;9.95;7.25;;;10.20;78.30;;;;;;5031269;28;20351;-82
2022/02/08 06:01:43;;;;;;;8.68;7.28;;;10.30;78.30;;;;;;4998466;28;20084;-83
2022/02/08 06:04:21;;;;;;;10.05;6.72;;;10.30;78.30;;;;;;5011118;28;20057;-84
2022/02/08 06:06:47;;;;;;;9.38;6.88;;;10.30;78.20;;;;;;5002652;28;20068;-83
2022/02/08 06:09:13;;;;;;;10.10;7.55;;;10.30;78.20;;;;;;5019107;28;20021;-84
2022/02/08 06:11:40;;;;;;;8.82;6.97;;;10.30;78.20;;;;;;5024105;28;20022;-83
2022/02/08 06:14:08;;;;;;;8.77;7.22;;;10.30;78.20;;;;;;5020272;28;20084;-84
2022/02/08 06:16:35;;;;;;;8.18;6.28;;;10.40;78.30;;;;;;5031682;28;20381;-86
2022/02/08 06:19:06;;;;;;;9.20;7.00;;;10.30;78.90;;;;;;5004036;28;20033;-84
2022/02/08 06:21:32;;;;;;;8.82;6.72;;;10.40;78.30;;;;;;5029159;28;20446;-82
2022/02/08 06:23:59;;;;;;;9.27;7.00;;;10.40;78.30;;;;;;5019971;28;20088;-83
2022/02/08 06:26:25;;;;;;;7.97;6.47;;;10.40;78.30;;;;;;5031971;28;20095;-81
2022/02/08 06:29:04;;;;;;;9.48;6.95;;;10.40;78.30;;;;;;5011695;28;20462;-83
2022/02/08 06:31:30;;;;;;;8.68;6.90;;;10.40;78.30;;;;;;5017333;28;20033;-82
2022/02/08 06:33:56;;;;;;;8.00;5.95;;;10.40;78.20;;;;;;5010738;28;20074;-85
2022/02/08 06:36:21;;;;;;;8.18;6.50;;;10.40;78.20;;;;;;5017304;28;20033;-79
2022/02/08 06:38:47;;;;;;;9.52;6.30;;;10.40;78.20;;;;;;4987329;28;20029;-84
2022/02/08 06:41:13;;;;;;;9.52;6.70;;;10.40;78.20;;;;;;5004935;28;20033;-82
2022/02/08 06:43:39;;;;;;;8.38;5.97;;;10.40;78.20;;;;;;5027919;28;20044;-82
2022/02/08 06:46:05;;;;;;;8.23;6.00;;;10.40;78.20;;;;;;5022642;28;20116;-82
2022/02/08 06:48:31;;;;;;;8.07;6.38;;;10.50;78.30;;;;;;4992169;28;20026;-82
2022/02/08 06:50:57;;;;;;;8.70;6.50;;;10.50;78.30;;;;;;5025623;28;20032;-83
2022/02/08 06:53:25;;;;;;;8.57;6.65;;;10.50;78.30;;;;;;4999850;28;20025;-82
2022/02/08 06:55:50;;;;;;;8.73;6.93;;;10.50;78.30;;;;;;5020311;28;20125;-82
2022/02/08 06:58:18;;;;;;;9.23;6.70;;;10.50;78.30;;;;;;5046475;28;20572;-82
2022/02/08 07:00:47;;;;;;;7.97;6.57;;;10.50;78.30;;;;;;5027664;28;20068;-82
2022/02/08 07:03:15;;;;;;;8.85;6.88;;;10.50;78.30;;;;;;5024725;28;20462;-84
2022/02/08 07:05:42;;;;;;;8.90;7.00;;;10.50;78.30;;;;;;5032756;28;20130;-83
2022/02/08 07:08:09;;;;;;;8.20;5.90;;;10.50;78.20;;;;;;5016501;28;20170;-84
2022/02/08 07:10:35;;;;;;;7.97;6.32;;;10.50;78.20;;;;;;5014416;28;20029;-82
2022/02/08 07:13:03;;;;;;;8.60;6.47;;;10.50;78.20;;;;;;5034843;28;20025;-83
2022/02/08 07:15:29;;;;;;;7.72;6.15;;;10.50;78.30;;;;;;5017662;28;20501;-82
2022/02/08 07:17:55;;;;;;;7.93;6.60;;;10.50;78.20;;;;;;5024740;28;20029;-83
2022/02/08 07:20:21;;;;;;;8.27;6.53;;;10.50;78.20;;;;;;5017173;28;20025;-83
2022/02/08 07:22:49;;;;;;;8.20;6.40;;;10.50;78.20;;;;;;5011283;28;20394;-82
2022/02/08 07:25:15;;;;;;;8.25;6.80;;;10.50;78.20;;;;;;5019187;28;20086;-86
2022/02/08 07:27:42;;;;;;;9.27;6.70;;;10.50;78.20;;;;;;5018574;28;20041;-83
2022/02/08 07:30:13;;;;;;;8.07;6.40;;;10.50;78.20;;;;;;4999495;28;20386;-82
2022/02/08 07:32:40;;;;;;;8.68;6.32;;;10.50;78.20;;;;;;5027784;28;20341;-83
2022/02/08 07:35:42;;;;;;;8.05;6.18;;;10.50;78.20;;;;;;5019491;28;20500;-83
2022/02/08 07:38:19;;;;;;;8.70;6.20;;;10.50;78.30;;;;;;5024842;28;20037;-82
2022/02/08 07:43:18;;;;;;;8.15;6.20;;;10.50;78.20;;;;;;5027227;28;20107;-82
2022/02/08 07:46:00;;;;;;;8.05;6.28;;;10.50;78.30;;;;;;5009741;28;20030;-82
2022/02/08 07:48:27;;;;;;;7.30;5.60;;;10.50;78.20;;;;;;5012335;28;20562;-82
2022/02/08 07:50:54;;;;;;;7.90;6.13;;;10.50;78.30;;;;;;4967642;28;20035;-82
2022/02/08 07:53:23;;;;;;;8.40;6.05;;;10.60;78.30;;;;;;5015808;28;20080;-82
2022/02/08 07:55:49;;;;;;;7.97;5.75;;;10.60;78.30;;;;;;5043648;28;20029;-82
2022/02/08 07:58:15;;;;;;;9.20;6.30;;;10.60;78.90;;;;;;4999051;28;20095;-82
2022/02/08 08:00:42;;;;;;;7.85;5.80;;;10.60;78.30;;;;;;5012988;28;20386;-83
2022/02/08 08:03:08;;;;;;;8.43;5.72;;;10.60;78.30;;;;;;5015688;28;20033;-81
2022/02/08 08:05:34;;;;;;;9.00;6.03;;;10.60;78.30;;;;;;5014223;28;20029;-83
2022/02/08 08:08:00;;;;;;;7.72;5.63;;;10.60;78.30;;;;;;4992463;28;20052;-82
2022/02/08 08:10:30;;;;;;;7.20;5.25;;;10.60;78.20;;;;;;5012581;28;20017;-82
2022/02/08 08:12:57;;;;;;;7.95;6.00;;;10.60;78.20;;;;;;5019145;28;20029;-82
2022/02/08 08:20:23;;;;;;;6.47;4.60;;;10.60;78.20;;;;;;5027632;28;20501;-83
2022/02/08 08:22:49;;;;;;;6.65;5.20;;;10.60;78.20;;;;;;4999256;28;20128;-81
2022/02/08 08:25:15;;;;;;;7.20;5.30;;;10.60;78.20;;;;;;4968098;28;20376;-82
2022/02/08 08:27:40;;;;;;;8.10;5.38;;;10.60;78.20;;;;;;4974334;28;20038;-81
2022/02/08 08:30:09;;;;;;;7.28;5.05;;;10.60;78.20;;;;;;4986994;28;20041;-82
2022/02/08 08:32:39;;;;;;;8.70;5.07;;;10.70;78.30;;;;;;4977703;28;20026;-84
2022/02/08 08:35:09;;;;;;;6.57;4.93;;;10.70;78.30;;;;;;4973120;28;20074;-83
2022/02/08 08:37:40;;;;;;;6.43;4.68;;;10.70;78.30;;;;;;4984548;28;20129;-82
2022/02/08 08:43:17;;;;;;;6.13;4.28;;;10.70;78.30;;;;;;4973335;28;20045;-82
2022/02/08 08:51:02;;;;;;;6.93;4.50;;;10.70;78.20;;;;;;4970847;28;20114;-84
2022/02/08 08:53:29;;;;;;;6.25;4.40;;;10.70;78.20;;;;;;4973610;28;20048;-82
2022/02/08 08:55:55;;;;;;;6.57;4.90;;;10.70;78.20;;;;;;4960744;28;20026;-83
2022/02/08 08:58:21;;;;;;;8.00;5.00;;;10.80;78.30;;;;;;5003591;28;20037;-82
2022/02/08 09:00:47;;;;;;;6.32;4.47;;;10.80;78.30;;;;;;4987042;28;20022;-84
2022/02/08 09:03:13;;;;;;;6.32;4.35;;;10.80;78.30;;;;;;4960028;28;20353;-83
2022/02/08 09:05:39;;;;;;;6.25;3.88;;;10.80;78.30;;;;;;4975983;28;20030;-83
2022/02/08 09:08:05;;;;;;;5.78;4.15;;;10.80;78.20;;;;;;4974242;28;20060;-83
2022/02/08 09:10:41;;;;;;;6.97;4.20;;;10.80;78.20;;;;;;4972441;28;20041;-82
2022/02/08 09:21:24;;;;;;;6.07;3.55;;;10.90;78.20;;;;;;4973544;28;20036;-83
2022/02/08 09:26:11;;;;;;;5.25;3.38;;;10.90;78.20;;;;;;5006170;28;20390;-83
2022/02/08 09:28:53;;;;;;;4.85;2.88;;;10.90;78.20;;;;;;4998343;28;20089;-83
2022/02/08 09:31:19;;;;;;;5.43;3.17;;;11.00;78.30;;;;;;4991524;28;20113;-83
2022/02/08 09:33:48;;;;;;;5.75;3.03;;;10.90;78.20;;;;;;4994680;28;20034;-83
2022/02/08 09:36:15;;;;;;;3.88;2.70;;;11.00;78.30;;;;;;4986853;28;20057;-83
2022/02/08 09:38:41;;;;;;;4.03;2.65;;;11.00;78.30;;;;;;4997730;28;20092;-82
2022/02/08 09:41:09;;;;;;;4.22;2.58;;;11.00;78.20;;;;;;4983990;28;20033;-83
2022/02/08 09:43:36;;;;;;;4.13;2.63;;;11.00;78.20;;;;;;5005386;28;20121;-84
2022/02/08 09:46:05;;;;;;;4.50;2.83;;;11.10;78.30;;;;;;5009552;28;20499;-85
2022/02/08 09:48:47;;;;;;;4.40;2.60;;;11.10;78.20;;;;;;5036314;28;20040;-84
2022/02/08 09:51:17;;;;;;;3.67;2.35;;;11.10;78.20;;;;;;4991063;28;20021;-87
2022/02/08 09:53:44;;;;;;;3.70;2.20;;;11.10;78.20;;;;;;4989001;28;20046;-85
2022/02/08 09:56:12;;;;;;;3.65;2.30;;;11.10;78.20;;;;;;4998633;28;20083;-87
2022/02/08 09:58:38;;;;;;;4.90;2.30;;;11.10;78.20;;;;;;5023467;28;20029;-84
2022/02/08 10:01:12;;;;;;;4.18;2.38;;;11.20;78.20;;;;;;4994967;28;20088;-84
2022/02/08 10:03:56;;;;;;;2.95;2.00;;;11.20;78.20;;;;;;4998362;28;20037;-84
2022/02/08 10:06:26;;;;;;;3.70;2.00;;;11.20;78.30;;;;;;4991353;28;20601;-84
2022/02/08 10:09:11;;;;;;;3.40;2.00;;;11.20;78.20;;;;;;5005859;28;20044;-84
2022/02/08 10:14:20;;;;;;;3.38;2.00;;;11.30;78.20;;;;;;5009607;28;20038;-84
2022/02/08 10:22:34;;;;;;;3.03;1.70;;;11.30;78.20;;;;;;5005134;28;20091;-82
2022/02/08 10:25:03;;;;;;;3.60;1.85;;;11.30;78.20;;;;;;5006737;28;20033;-83
2022/02/08 10:27:36;;;;;;;3.13;1.65;;;11.40;78.20;;;;;;5011947;28;20104;-82
2022/02/08 10:38:45;;;;;;;3.33;1.95;;;11.50;78.20;;;;;;5008395;28;20099;-82
2022/02/08 10:41:17;;;;;;;1.88;1.60;;;11.50;78.20;;;;;;5008773;28;20029;-80
2022/02/08 10:43:54;;;;;;;2.05;1.50;;;11.50;78.20;;;;;;5012204;28;20033;-80
2022/02/08 10:46:21;;;;;;;2.67;1.50;;;11.60;78.20;;;;;;5008865;28;20171;-80
2022/02/08 10:48:47;;;;;;;2.22;1.42;;;11.60;78.20;;;;;;4999361;28;20110;-81
2022/02/08 10:51:15;;;;;;;2.45;1.67;;;11.60;78.20;;;;;;5008935;28;20033;-81
2022/02/08 10:53:53;;;;;;;3.00;1.70;;;11.60;78.20;;;;;;5006957;28;20041;-81
2022/02/08 10:56:22;;;;;;;2.67;1.40;;;11.70;78.20;;;;;;5028396;28;20036;-81
2022/02/08 10:59:03;;;;;;;2.25;1.33;;;11.70;78.10;;;;;;4989966;28;20387;-81
2022/02/08 11:01:33;;;;;;;3.15;1.52;;;11.70;78.10;;;;;;5000151;28;20040;-81
2022/02/08 11:04:19;;;;;;;2.38;1.30;;;11.70;78.10;;;;;;4990835;28;20037;-84
2022/02/08 11:07:14;;;;;;;3.28;1.70;;;11.80;78.10;;;;;;5021741;28;20087;-80
2022/02/08 11:09:55;;;;;;;2.60;1.45;;;11.80;78.10;;;;;;4993614;28;20037;-81
2022/02/08 11:12:35;;;;;;;2.47;1.40;;;11.80;78.00;;;;;;4988001;28;20029;-82
2022/02/08 11:20:24;;;;;;;2.47;1.30;;;11.90;78.10;;;;;;5001161;28;20095;-79
2022/02/08 11:25:29;;;;;;;2.95;1.50;;;11.90;78.00;;;;;;4998888;28;20042;-82
2022/02/08 11:28:06;;;;;;;2.47;1.40;;;12.00;78.00;;;;;;5001297;28;20033;-80
2022/02/08 11:30:47;;;;;;;2.50;1.30;;;12.00;78.10;;;;;;4998888;28;20091;-83
2022/02/08 11:33:34;;;;;;;2.38;1.10;;;12.00;78.00;;;;;;4999639;28;20060;-83
2022/02/08 11:39:21;;;;;;;2.25;1.20;;;12.10;78.00;;;;;;5022343;28;20522;-83
2022/02/08 11:48:29;;;;;;;2.20;1.30;;;12.20;78.10;;;;;;4937781;28;20425;-85
2022/02/08 11:51:43;;;;;;;1.20;1.10;;;12.20;77.90;;;;;;4981289;28;20577;-86
2022/02/08 11:54:01;;;;;;;2.08;1.20;;;12.20;77.90;;;;;;4987884;28;20071;-85
2022/02/08 11:59:30;;;;;;;1.70;1.23;;;12.30;78.00;;;;;;4971647;28;20037;-81
2022/02/08 12:09:50;;;;;;;2.17;1.25;;;12.40;77.90;;;;;;4999594;28;20481;-85
2022/02/08 12:48:34;;;;;;;2.53;1.08;;;12.70;77.60;;;;;;4994779;28;20037;-80
2022/02/08 13:02:22;;;;;;;1.75;1.10;;;13.00;77.50;;;;;;5015545;28;20025;-80
2022/02/08 13:05:03;;;;;;;2.25;0.98;;;13.00;77.50;;;;;;5023482;28;20064;-82
2022/02/08 14:07:56;;;;;;;2.58;1.23;;;13.50;76.90;;;;;;5003037;28;20088;-83
2022/02/08 14:10:42;;;;;;;3.90;1.60;;;13.50;76.90;;;;;;5026449;28;20037;-83
2022/02/08 14:13:42;;;;;;;2.35;1.30;;;13.50;76.80;;;;;;4987736;28;20040;-86
2022/02/08 14:36:54;;;;;;;3.03;1.30;;;13.60;76.60;;;;;;4985484;28;20038;-82
2022/02/08 15:09:37;;;;;;;1.48;1.13;;;13.70;76.40;;;;;;5002233;28;20044;-83
2022/02/08 15:12:15;;;;;;;2.92;1.10;;;13.70;76.40;;;;;;4990452;28;20029;-83
2022/02/08 15:14:51;;;;;;;2.47;1.10;;;13.80;76.40;;;;;;4988990;28;20060;-83
2022/02/08 15:17:17;;;;;;;2.00;1.08;;;13.80;76.40;;;;;;4985915;28;20038;-83
2022/02/08 15:19:46;;;;;;;1.80;1.00;;;13.80;76.30;;;;;;4973989;28;20056;-83
2022/02/08 15:22:12;;;;;;;2.35;1.00;;;13.80;76.30;;;;;;4980890;28;20500;-87
2022/02/08 15:24:40;;;;;;;2.78;1.08;;;13.80;76.20;;;;;;5005142;28;20041;-83
2022/02/08 15:27:08;;;;;;;1.55;1.00;;;13.80;76.20;;;;;;5004463;28;20034;-82
2022/02/08 15:29:34;;;;;;;1.95;1.10;;;13.80;76.20;;;;;;4997188;28;20034;-83
2022/02/08 15:32:02;;;;;;;1.77;1.23;;;13.80;76.10;;;;;;4998058;28;20028;-83
2022/02/08 15:34:28;;;;;;;1.90;1.23;;;13.80;76.10;;;;;;4996542;28;20136;-82
2022/02/08 15:36:55;;;;;;;2.38;1.13;;;13.80;76.10;;;;;;4995558;28;20558;-86
2022/02/08 15:39:22;;;;;;;2.45;1.10;;;13.80;76.10;;;;;;5004493;28;20030;-82
2022/02/08 15:41:48;;;;;;;1.30;0.90;;;13.80;76.10;;;;;;5006789;28;20028;-82
2022/02/08 15:44:22;;;;;;;1.67;1.00;;;13.80;76.00;;;;;;4999132;28;20496;-83
2022/02/08 15:46:48;;;;;;;2.43;1.17;;;13.80;76.00;;;;;;4973643;28;20471;-83
2022/02/08 15:49:15;;;;;;;3.08;1.20;;;13.80;76.00;;;;;;5025138;28;20075;-82
2022/02/08 15:51:47;;;;;;;1.85;1.00;;;13.80;76.00;;;;;;4999613;28;20029;-82
2022/02/08 16:05:22;;;;;;;1.17;0.90;;;13.80;75.80;;;;;;5006347;28;20049;-82
2022/02/08 16:07:55;;;;;;;1.10;0.98;;;13.90;75.90;;;;;;4981882;28;20050;-85
2022/02/08 16:10:44;;;;;;;1.38;1.02;;;13.80;75.80;;;;;;4988685;28;20017;-82
2022/02/08 16:13:30;;;;;;;2.67;1.20;;;13.80;75.90;;;;;;5000396;28;20485;-80
2022/02/08 16:18:33;;;;;;;2.33;1.15;;;13.90;75.90;;;;;;4964553;28;20112;-81
2022/02/08 16:21:12;;;;;;;2.53;1.20;;;13.80;75.80;;;;;;4995113;28;20537;-83
2022/02/08 16:26:41;;;;;;;2.88;1.20;;;13.80;75.80;;;;;;4986687;28;20091;-83
2022/02/08 16:29:42;;;;;;;1.88;1.05;;;13.90;75.90;;;;;;4985901;28;20553;-82
2022/02/08 16:53:29;;;;;;;1.95;1.02;;;13.80;75.90;;;;;;4980847;28;20083;-81
2022/02/08 16:58:37;;;;;;;1.40;1.00;;;13.80;75.90;;;;;;4996698;28;20029;-82
2022/02/08 17:01:11;;;;;;;1.48;1.00;;;13.80;75.90;;;;;;5004638;28;20029;-82
2022/02/08 17:03:42;;;;;;;1.10;1.00;;;13.80;75.90;;;;;;4990364;28;20450;-83
2022/02/08 17:06:08;;;;;;;1.63;1.20;;;13.80;75.90;;;;;;4997234;28;20034;-82
2022/02/08 17:08:33;;;;;;;1.00;0.90;;;13.80;75.80;;;;;;4983399;28;20565;-83
2022/02/08 17:11:01;;;;;;;1.42;1.20;;;13.80;75.90;;;;;;4986077;28;20469;-83
2022/02/08 17:35:57;;;;;;;2.50;1.30;;;13.70;75.80;;;;;;5004949;28;20505;-83
2022/02/08 17:48:11;;;;;;;2.35;1.17;;;13.70;76.60;;;;;;5000426;28;20561;-81
2022/02/08 17:50:37;;;;;;;1.30;1.20;;;13.70;75.90;;;;;;4990985;28;20109;-85
2022/02/08 17:53:04;;;;;;;1.08;1.08;;;13.70;76.00;;;;;;4978133;28;20459;-83
2022/02/08 17:55:30;;;;;;;2.42;1.30;;;13.70;76.00;;;;;;5001129;28;20046;-82
2022/02/08 17:57:57;;;;;;;1.63;1.42;;;13.60;75.90;;;;;;4995012;28;20598;-83
2022/02/08 18:00:23;;;;;;;2.10;1.20;;;13.70;76.00;;;;;;5024651;28;20084;-84
2022/02/08 18:02:49;;;;;;;3.30;1.35;;;13.70;76.00;;;;;;4992872;28;20025;-83
2022/02/08 18:05:16;;;;;;;3.00;1.40;;;13.60;75.90;;;;;;5022296;28;20079;-85
2022/02/08 18:07:43;;;;;;;3.05;1.45;;;13.70;76.00;;;;;;5023903;28;20029;-83
2022/02/08 18:10:10;;;;;;;1.55;1.20;;;13.70;76.00;;;;;;5009762;28;20029;-81
2022/02/08 18:12:39;;;;;;;2.20;1.30;;;13.60;76.00;;;;;;4979328;28;20026;-81
2022/02/08 18:15:12;;;;;;;2.22;1.30;;;13.60;76.00;;;;;;4993949;28;20398;-81
2022/02/08 18:17:44;;;;;;;1.83;1.25;;;13.70;76.00;;;;;;4990855;28;20465;-81
2022/02/08 18:25:56;;;;;;;2.42;1.25;;;13.60;76.00;;;;;;4990947;28;20050;-82
2022/02/08 19:12:16;;;;;;;1.80;1.70;;;13.50;76.50;;;;;;5009169;28;20486;-83
2022/02/08 19:19:58;;;;;;;2.95;1.90;;;13.40;76.40;;;;;;4996545;28;20025;-80
2022/02/08 19:22:26;;;;;;;2.63;1.77;;;13.40;76.50;;;;;;4977499;28;20030;-81
2022/02/08 19:24:53;;;;;;;2.58;1.67;;;13.40;76.50;;;;;;4993884;28;20049;-81
2022/02/08 19:27:19;;;;;;;3.25;2.03;;;13.40;76.50;;;;;;5005190;28;20513;-84
2022/02/08 19:29:46;;;;;;;4.20;1.90;;;13.40;76.50;;;;;;4955920;28;20021;-85
2022/02/08 19:32:13;;;;;;;2.35;1.90;;;13.40;76.50;;;;;;4994449;28;20534;-83
2022/02/08 19:34:41;;;;;;;2.50;1.98;;;13.40;76.50;;;;;;4989084;28;20065;-83
2022/02/08 19:37:08;;;;;;;3.78;2.30;;;13.40;76.60;;;;;;5009062;28;20037;-80
2022/02/08 19:39:35;;;;;;;3.20;2.15;;;13.40;76.60;;;;;;4965634;28;20604;-83
2022/02/08 19:42:01;;;;;;;2.88;2.13;;;13.40;76.60;;;;;;4994160;28;20057;-82
2022/02/08 19:44:27;;;;;;;2.72;2.10;;;13.40;76.60;;;;;;4992241;28;20036;-80
2022/02/08 19:46:56;;;;;;;2.75;2.15;;;13.40;76.60;;;;;;4982043;28;20030;-80
2022/02/08 19:49:22;;;;;;;2.70;2.10;;;13.40;76.60;;;;;;5024983;28;20020;-81
2022/02/08 19:51:48;;;;;;;3.88;2.38;;;13.40;76.60;;;;;;5024114;28;20032;-81
2022/02/08 19:54:20;;;;;;;3.40;2.30;;;13.30;76.50;;;;;;5005037;28;20109;-80
2022/02/08 19:56:57;;;;;;;2.20;2.00;;;13.40;76.60;;;;;;4994783;28;20029;-80
2022/02/08 19:59:36;;;;;;;2.90;2.30;;;13.30;76.60;;;;;;5003814;28;20034;-82
2022/02/08 20:02:05;;;;;;;3.20;2.30;;;13.30;76.60;;;;;;4977389;28;20074;-82
2022/02/08 20:04:33;;;;;;;3.38;2.60;;;13.40;76.70;;;;;;4993352;28;20045;-82
2022/02/08 20:06:59;;;;;;;3.33;2.35;;;13.30;76.70;;;;;;4997072;28;20545;-82
2022/02/08 20:09:26;;;;;;;4.15;2.58;;;13.30;76.70;;;;;;4989118;28;20033;-81
2022/02/08 20:11:52;;;;;;;3.30;2.70;;;13.30;76.70;;;;;;4998604;28;20030;-81
2022/02/08 20:14:19;;;;;;;4.03;2.47;;;13.30;76.70;;;;;;5010995;28;20048;-83
2022/02/08 20:16:45;;;;;;;3.50;2.60;;;13.30;76.80;;;;;;5009432;28;20445;-81
2022/02/08 20:19:13;;;;;;;4.25;2.67;;;13.30;76.80;;;;;;5007617;28;20474;-82
2022/02/08 20:21:39;;;;;;;3.05;2.38;;;13.30;76.80;;;;;;4995339;28;20105;-84
2022/02/08 20:24:10;;;;;;;4.25;2.65;;;13.30;76.80;;;;;;4999906;28;20084;-82
2022/02/08 20:29:04;;;;;;;4.25;2.72;;;13.30;76.80;;;;;;4997179;28;20022;-82
2022/02/08 20:31:30;;;;;;;3.80;2.88;;;13.20;76.80;;;;;;4998024;28;20034;-82
2022/02/08 20:33:55;;;;;;;4.55;3.03;;;13.20;76.80;;;;;;5004056;28;20037;-82
2022/02/08 20:36:21;;;;;;;3.33;2.60;;;13.20;76.80;;;;;;5005954;28;20026;-80
2022/02/08 20:38:51;;;;;;;4.72;3.15;;;13.20;76.80;;;;;;5002615;28;20034;-81
2022/02/08 20:41:21;;;;;;;4.00;3.03;;;13.30;76.90;;;;;;4988827;28;20544;-82
2022/02/08 20:43:48;;;;;;;5.28;3.20;;;13.20;76.90;;;;;;4995658;28;20060;-81
2022/02/08 20:46:15;;;;;;;3.67;2.92;;;13.20;76.80;;;;;;4988280;28;20068;-82
2022/02/08 20:48:42;;;;;;;3.35;2.80;;;13.20;76.90;;;;;;4981264;28;20064;-84